createdAt,value
2023-01-28T00:01:19.577Z,7.22
2023-01-28T00:03:50.925Z,6.97
2023-01-28T00:06:18.992Z,7.80
2023-01-28T00:08:45.928Z,7.35
2023-01-28T00:11:13.788Z,6.55
2023-01-28T00:13:40.746Z,7.07
2023-01-28T00:16:09.679Z,7.15
2023-01-28T00:18:36.866Z,7.20
2023-01-28T00:21:06.735Z,7.55
2023-01-28T00:23:35.282Z,7.25
2023-01-28T00:26:04.092Z,7.75
2023-01-28T00:28:30.765Z,7.55
2023-01-28T00:30:57.482Z,7.10
2023-01-28T00:33:24.559Z,8.02
2023-01-28T00:36:00.241Z,8.43
2023-01-28T00:38:27.628Z,8.27
2023-01-28T00:40:54.481Z,8.63
2023-01-28T00:43:21.601Z,8.50
2023-01-28T00:45:50.249Z,8.65
2023-01-28T00:48:17.172Z,8.80
2023-01-28T00:50:45.497Z,9.70
2023-01-28T00:53:12.238Z,8.77
2023-01-28T00:55:39.125Z,9.63
2023-01-28T00:58:05.894Z,8.65
2023-01-28T01:00:32.574Z,8.90
2023-01-28T01:03:00.221Z,8.73
2023-01-28T01:05:26.994Z,8.27
2023-01-28T01:07:53.646Z,8.55
2023-01-28T01:10:20.369Z,7.82
2023-01-28T01:12:48.608Z,8.25
2023-01-28T01:15:16.938Z,9.50
2023-01-28T01:17:47.295Z,8.70
2023-01-28T01:20:20.695Z,7.80
2023-01-28T01:22:48.169Z,8.32
2023-01-28T01:25:16.851Z,8.48
2023-01-28T01:27:46.074Z,8.45
2023-01-28T01:30:13.151Z,7.65
2023-01-28T01:32:40.085Z,8.63
2023-01-28T01:35:08.145Z,8.30
2023-01-28T01:37:36.469Z,8.75
2023-01-28T01:40:05.004Z,9.30
2023-01-28T01:42:33.169Z,8.35
2023-01-28T01:45:03.647Z,8.68
2023-01-28T01:47:44.180Z,8.27
2023-01-28T01:50:18.199Z,8.73
2023-01-28T01:52:46.009Z,8.32
2023-01-28T01:55:19.101Z,8.15
2023-01-28T01:57:48.284Z,8.20
2023-01-28T02:00:15.705Z,7.90
2023-01-28T02:02:46.421Z,7.65
2023-01-28T02:05:16.150Z,7.95
2023-01-28T02:07:45.095Z,7.45
2023-01-28T02:10:13.321Z,7.75
2023-01-28T02:12:47.808Z,7.47
2023-01-28T02:15:22.721Z,7.68
2023-01-28T02:17:50.653Z,8.15
2023-01-28T02:20:25.616Z,8.35
2023-01-28T02:23:03.212Z,7.50
2023-01-28T02:25:32.909Z,7.10
2023-01-28T02:28:32.837Z,8.27
2023-01-28T02:31:16.294Z,7.60
2023-01-28T02:33:59.376Z,8.48
2023-01-28T02:36:49.926Z,8.05
2023-01-28T02:39:23.046Z,8.85
2023-01-28T02:42:07.512Z,8.25
2023-01-28T02:44:34.467Z,9.02
2023-01-28T02:47:19.833Z,9.95
2023-01-28T02:49:51.954Z,10.18
2023-01-28T02:52:46.959Z,23.20
2023-01-28T02:55:50.060Z,20.98
2023-01-28T02:58:37.086Z,11.05
2023-01-28T03:01:10.838Z,12.43
2023-01-28T03:04:01.662Z,16.65
2023-01-28T03:06:39.111Z,28.55
2023-01-28T03:09:24.562Z,10.57
2023-01-28T03:12:24.924Z,13.13
2023-01-28T03:15:18.592Z,10.20
2023-01-28T03:18:14.163Z,11.30
2023-01-28T03:21:07.952Z,26.35
2023-01-28T03:24:07.037Z,16.40
2023-01-28T03:27:00.667Z,11.07
2023-01-28T03:29:49.433Z,9.13
2023-01-28T03:32:38.271Z,8.93
2023-01-28T03:35:27.369Z,8.75
2023-01-28T03:37:54.156Z,8.43
2023-01-28T03:40:22.796Z,8.05
2023-01-28T03:42:49.585Z,8.30
2023-01-28T03:45:36.009Z,8.68
2023-01-28T03:48:04.737Z,8.95
2023-01-28T03:50:31.921Z,8.02
2023-01-28T03:53:13.529Z,8.43
2023-01-28T03:55:51.167Z,8.55
2023-01-28T03:58:19.129Z,8.80
2023-01-28T04:00:46.442Z,8.65
2023-01-28T04:03:19.039Z,8.45
2023-01-28T04:06:12.177Z,9.23
2023-01-28T04:08:59.140Z,8.48
2023-01-28T04:11:36.248Z,8.60
2023-01-28T04:14:05.240Z,9.20
2023-01-28T04:16:49.454Z,9.65
2023-01-28T04:19:16.772Z,10.73
2023-01-28T04:21:44.663Z,10.60
2023-01-28T04:24:11.503Z,11.70
2023-01-28T04:26:39.566Z,10.95
2023-01-28T04:29:06.517Z,11.52
2023-01-28T04:31:35.463Z,11.55
2023-01-28T04:34:20.684Z,11.57
2023-01-28T04:37:10.559Z,11.05
2023-01-28T04:39:55.677Z,10.90
2023-01-28T04:42:40.818Z,9.50
2023-01-28T04:45:16.160Z,10.18
2023-01-28T04:47:51.657Z,10.68
2023-01-28T04:50:37.855Z,10.05
2023-01-28T04:53:19.082Z,11.00
2023-01-28T04:56:08.905Z,11.05
2023-01-28T04:58:36.327Z,10.68
2023-01-28T05:01:06.286Z,11.85
2023-01-28T05:03:35.995Z,11.30
2023-01-28T05:06:05.029Z,10.07
2023-01-28T05:08:49.311Z,10.45
2023-01-28T05:11:16.470Z,11.32
2023-01-28T05:13:44.954Z,11.63
2023-01-28T05:16:13.463Z,11.23
2023-01-28T05:18:40.464Z,10.10
2023-01-28T05:21:15.338Z,11.02
2023-01-28T05:23:43.247Z,10.65
2023-01-28T05:26:10.156Z,11.63
2023-01-28T05:28:36.955Z,11.57
2023-01-28T05:31:04.822Z,10.75
2023-01-28T05:33:31.738Z,11.95
2023-01-28T05:35:58.795Z,11.43
2023-01-28T05:38:25.620Z,10.38
2023-01-28T05:40:52.273Z,11.48
2023-01-28T05:43:19.172Z,12.15
2023-01-28T05:45:52.575Z,10.68
2023-01-28T05:48:23.639Z,11.50
2023-01-28T05:51:10.976Z,10.85
2023-01-28T05:53:41.951Z,10.82
2023-01-28T05:56:08.657Z,10.30
2023-01-28T05:58:36.840Z,10.30
2023-01-28T06:01:04.142Z,10.73
2023-01-28T06:03:39.167Z,10.48
2023-01-28T06:06:06.208Z,10.07
2023-01-28T06:08:32.897Z,9.85
2023-01-28T06:11:00.011Z,10.00
2023-01-28T06:13:28.566Z,10.25
2023-01-28T06:16:15.264Z,11.07
2023-01-28T06:19:11.321Z,10.48
2023-01-28T06:21:38.238Z,11.05
2023-01-28T06:24:05.093Z,11.38
2023-01-28T06:26:31.911Z,10.73
2023-01-28T06:28:58.616Z,10.48
2023-01-28T06:31:25.382Z,10.27
2023-01-28T06:33:52.022Z,10.15
2023-01-28T06:36:18.734Z,11.38
2023-01-28T06:38:45.504Z,11.25
2023-01-28T06:41:12.317Z,10.77
2023-01-28T06:43:39.057Z,10.68
2023-01-28T06:46:06.113Z,10.13
2023-01-28T06:48:33.057Z,10.48
2023-01-28T06:50:59.761Z,10.95
2023-01-28T06:53:26.630Z,14.40
2023-01-28T06:55:53.406Z,14.68
2023-01-28T06:58:20.170Z,16.95
2023-01-28T07:00:46.865Z,21.52
2023-01-28T07:03:13.615Z,14.75
2023-01-28T07:05:40.308Z,22.23
2023-01-28T07:08:07.112Z,26.88
2023-01-28T07:10:33.959Z,19.77
2023-01-28T07:13:00.635Z,21.17
2023-01-28T07:15:27.657Z,14.73
2023-01-28T07:17:54.346Z,14.98
2023-01-28T07:20:22.195Z,14.32
2023-01-28T07:22:49.016Z,11.95
2023-01-28T07:25:16.073Z,13.00
2023-01-28T07:27:51.176Z,14.75
2023-01-28T07:30:18.899Z,18.42
2023-01-28T07:32:46.152Z,14.95
2023-01-28T07:35:13.752Z,15.02
2023-01-28T07:37:40.534Z,13.68
2023-01-28T07:40:08.269Z,14.55
2023-01-28T07:42:34.968Z,14.25
2023-01-28T07:45:06.387Z,11.48
2023-01-28T07:47:33.426Z,11.35
2023-01-28T07:50:00.451Z,12.25
2023-01-28T07:52:27.130Z,13.18
2023-01-28T07:54:54.178Z,12.00
2023-01-28T07:57:23.176Z,10.57
2023-01-28T07:59:50.975Z,11.90
2023-01-28T08:02:18.353Z,12.23
2023-01-28T08:04:46.711Z,11.90
2023-01-28T08:07:13.467Z,11.93
2023-01-28T08:09:40.143Z,11.07
2023-01-28T08:12:06.991Z,11.38
2023-01-28T08:14:33.676Z,11.48
2023-01-28T08:17:00.389Z,13.90
2023-01-28T08:19:27.058Z,16.42
2023-01-28T08:21:53.855Z,12.88
2023-01-28T08:24:20.649Z,12.57
2023-01-28T08:26:48.507Z,13.48
2023-01-28T08:29:15.173Z,15.65
2023-01-28T08:31:41.927Z,14.38
2023-01-28T08:34:08.601Z,13.93
2023-01-28T08:36:35.305Z,13.82
2023-01-28T08:39:01.936Z,13.20
2023-01-28T08:41:30.864Z,12.82
2023-01-28T08:43:58.294Z,12.35
2023-01-28T08:46:24.970Z,12.80
2023-01-28T08:48:51.768Z,11.82
2023-01-28T08:51:18.406Z,13.50
2023-01-28T08:53:45.090Z,13.77
2023-01-28T08:56:11.783Z,13.13
2023-01-28T08:58:38.510Z,12.63
2023-01-28T09:01:06.725Z,12.15
2023-01-28T09:03:33.852Z,11.63
2023-01-28T09:06:04.813Z,11.80
2023-01-28T09:08:31.838Z,12.23
2023-01-28T09:10:59.488Z,11.93
2023-01-28T09:13:27.073Z,12.02
2023-01-28T09:15:53.870Z,12.32
2023-01-28T09:18:20.688Z,10.55
2023-01-28T09:20:47.485Z,11.60
2023-01-28T09:23:14.750Z,10.70
2023-01-28T09:25:41.479Z,9.80
2023-01-28T09:28:08.617Z,10.85
2023-01-28T09:30:37.530Z,10.82
2023-01-28T09:33:04.549Z,10.90
2023-01-28T09:35:31.303Z,10.45
2023-01-28T09:37:59.046Z,11.38
2023-01-28T09:40:40.069Z,11.05
2023-01-28T09:43:30.624Z,11.63
2023-01-28T09:46:00.158Z,11.85
2023-01-28T09:48:45.341Z,10.95
2023-01-28T09:51:28.450Z,10.70
2023-01-28T09:53:57.298Z,11.18
2023-01-28T09:56:32.279Z,11.40
2023-01-28T09:59:13.553Z,11.30
2023-01-28T10:02:02.030Z,11.65
2023-01-28T10:04:38.971Z,10.93
2023-01-28T10:07:20.083Z,15.65
2023-01-28T10:10:06.235Z,13.45
2023-01-28T10:13:06.076Z,20.55
2023-01-28T10:16:05.923Z,27.75
2023-01-28T10:18:53.842Z,19.52
2023-01-28T10:21:50.823Z,16.98
2023-01-28T10:24:31.860Z,14.63
2023-01-28T10:26:58.760Z,14.35
2023-01-28T10:29:30.023Z,25.60
2023-01-28T10:32:05.528Z,12.73
2023-01-28T10:34:32.312Z,17.58
2023-01-28T10:36:59.056Z,9.98
2023-01-28T10:39:28.229Z,9.80
2023-01-28T10:41:59.070Z,7.90
2023-01-28T10:44:37.655Z,10.40
2023-01-28T10:47:15.381Z,8.57
2023-01-28T10:49:46.546Z,8.10
2023-01-28T10:52:14.516Z,8.50
2023-01-28T10:54:41.250Z,7.68
2023-01-28T10:57:13.308Z,7.90
2023-01-28T10:59:43.209Z,8.75
2023-01-28T11:02:33.084Z,7.45
2023-01-28T11:05:27.205Z,6.60
2023-01-28T11:08:16.954Z,5.55
2023-01-28T11:10:45.810Z,5.35
2023-01-28T11:13:30.926Z,5.22
2023-01-28T11:16:17.861Z,4.65
2023-01-28T11:18:54.451Z,5.63
2023-01-28T11:21:29.961Z,5.88
2023-01-28T11:24:04.689Z,4.78
2023-01-28T11:26:35.092Z,4.57
2023-01-28T11:29:01.815Z,4.10
2023-01-28T11:31:29.182Z,4.28
2023-01-28T11:33:59.510Z,4.10
2023-01-28T11:36:29.048Z,4.82
2023-01-28T11:38:58.896Z,5.05
2023-01-28T11:41:32.136Z,5.65
2023-01-28T11:44:00.986Z,5.40
2023-01-28T11:47:01.128Z,5.68
2023-01-28T11:49:53.739Z,5.80
2023-01-28T11:53:06.349Z,5.85
2023-01-28T11:55:40.466Z,4.45
2023-01-28T11:58:31.208Z,5.20
2023-01-28T12:01:19.421Z,5.10
2023-01-28T12:04:20.163Z,7.35
2023-01-28T12:07:17.186Z,5.85
2023-01-28T12:10:18.969Z,6.93
2023-01-28T12:12:59.092Z,5.25
2023-01-28T12:16:10.681Z,5.28
2023-01-28T12:18:43.670Z,6.22
2023-01-28T12:21:25.261Z,6.15
2023-01-28T12:24:27.078Z,5.72
2023-01-28T12:27:29.775Z,12.50
2023-01-28T12:30:15.401Z,19.67
2023-01-28T12:33:02.631Z,7.35
2023-01-28T12:35:43.462Z,6.88
2023-01-28T12:38:19.229Z,6.75
2023-01-28T12:41:04.383Z,7.38
2023-01-28T12:43:51.505Z,7.93
2023-01-28T12:46:30.053Z,7.72
2023-01-28T12:49:50.862Z,7.85
2023-01-28T12:52:20.321Z,8.38
2023-01-28T12:55:14.654Z,8.30
2023-01-28T12:57:41.824Z,8.15
2023-01-28T13:00:34.336Z,7.65
2023-01-28T13:03:21.529Z,7.13
2023-01-28T13:05:55.349Z,7.15
2023-01-28T13:08:25.161Z,7.30
2023-01-28T13:10:52.840Z,7.32
2023-01-28T13:13:35.889Z,7.22
2023-01-28T13:16:04.220Z,7.82
2023-01-28T13:18:48.072Z,7.53
2023-01-28T13:21:34.688Z,8.32
2023-01-28T13:24:20.963Z,7.10
2023-01-28T13:26:56.085Z,9.32
2023-01-28T13:29:25.933Z,13.45
2023-01-28T13:31:58.931Z,24.63
2023-01-28T13:34:37.945Z,25.65
2023-01-28T13:37:29.582Z,20.10
2023-01-28T13:40:02.975Z,23.42
2023-01-28T13:42:31.259Z,24.45
2023-01-28T13:45:16.830Z,18.10
2023-01-28T13:47:53.872Z,16.42
2023-01-28T13:50:27.676Z,13.07
2023-01-28T13:53:03.834Z,10.07
2023-01-28T13:55:44.317Z,10.82
2023-01-28T13:58:51.714Z,10.63
2023-01-28T14:01:27.449Z,10.27
2023-01-28T14:04:11.976Z,13.65
2023-01-28T14:07:07.766Z,10.93
2023-01-28T14:09:42.983Z,9.75
2023-01-28T14:12:33.361Z,11.88
2023-01-28T14:15:17.329Z,8.52
2023-01-28T14:17:53.317Z,8.63
2023-01-28T14:20:26.434Z,9.95
2023-01-28T14:23:05.336Z,9.63
2023-01-28T14:26:07.286Z,8.40
2023-01-28T14:28:45.736Z,9.52
2023-01-28T14:31:22.469Z,9.40
2023-01-28T14:33:49.324Z,8.98
2023-01-28T14:36:16.215Z,9.25
2023-01-28T14:38:44.926Z,9.13
2023-01-28T14:41:25.890Z,9.77
2023-01-28T14:43:55.305Z,10.15
2023-01-28T14:46:45.689Z,10.95
2023-01-28T14:49:55.155Z,11.10
2023-01-28T14:52:53.243Z,9.07
2023-01-28T14:55:38.271Z,12.52
2023-01-28T14:58:24.055Z,10.30
2023-01-28T15:00:56.137Z,13.85
2023-01-28T15:03:26.527Z,11.13
2023-01-28T15:06:16.987Z,10.30
2023-01-28T15:08:43.724Z,11.98
2023-01-28T15:11:17.826Z,12.52
2023-01-28T15:13:47.482Z,12.55
2023-01-28T15:16:29.076Z,12.20
2023-01-28T15:18:57.335Z,7.43
2023-01-28T15:21:26.405Z,9.20
2023-01-28T15:23:57.232Z,9.70
2023-01-28T15:26:27.279Z,10.05
2023-01-28T15:28:54.878Z,10.90
2023-01-28T15:31:26.447Z,9.75
2023-01-28T15:34:00.375Z,11.87
2023-01-28T15:36:27.987Z,11.95
2023-01-28T15:38:55.118Z,14.32
2023-01-28T15:41:27.948Z,13.82
2023-01-28T15:43:54.728Z,11.57
2023-01-28T15:46:21.994Z,10.18
2023-01-28T15:48:59.385Z,12.85
2023-01-28T15:51:30.871Z,9.30
2023-01-28T15:54:09.775Z,10.83
2023-01-28T15:56:37.120Z,10.45
2023-01-28T15:59:18.776Z,9.85
2023-01-28T16:01:45.533Z,10.33
2023-01-28T16:04:29.544Z,10.35
2023-01-28T16:06:58.879Z,10.85
2023-01-28T16:09:31.489Z,9.80
2023-01-28T16:12:06.568Z,10.60
2023-01-28T16:14:46.544Z,9.65
2023-01-28T16:17:21.929Z,9.82
2023-01-28T16:19:55.413Z,9.90
2023-01-28T16:22:37.915Z,10.55
2023-01-28T16:25:25.917Z,9.70
2023-01-28T16:27:52.736Z,9.27
2023-01-28T16:30:19.519Z,10.75
2023-01-28T16:32:46.530Z,10.65
2023-01-28T16:35:26.650Z,9.68
2023-01-28T16:37:54.345Z,9.88
2023-01-28T16:40:23.594Z,10.05
2023-01-28T16:42:53.460Z,10.38
2023-01-28T16:45:25.080Z,10.88
2023-01-28T16:47:52.806Z,11.25
2023-01-28T16:50:21.815Z,11.70
2023-01-28T16:52:51.726Z,12.10
2023-01-28T16:55:20.849Z,12.40
2023-01-28T16:57:49.835Z,16.40
2023-01-28T17:00:23.057Z,13.80
2023-01-28T17:02:50.895Z,14.38
2023-01-28T17:05:18.455Z,14.27
2023-01-28T17:07:48.597Z,14.15
2023-01-28T17:10:16.675Z,13.85
2023-01-28T17:12:44.289Z,13.27
2023-01-28T17:15:11.424Z,12.30
2023-01-28T17:17:38.146Z,12.55
2023-01-28T17:20:06.206Z,13.73
2023-01-28T17:22:32.974Z,15.98
2023-01-28T17:24:59.708Z,13.10
2023-01-28T17:27:26.411Z,12.60
2023-01-28T17:29:53.617Z,11.93
2023-01-28T17:32:20.454Z,11.80
2023-01-28T17:34:48.200Z,12.20
2023-01-28T17:37:15.014Z,14.80
2023-01-28T17:39:41.760Z,11.55
2023-01-28T17:42:08.403Z,12.48
2023-01-28T17:44:35.087Z,11.75
2023-01-28T17:47:01.950Z,11.98
2023-01-28T17:49:28.639Z,13.68
2023-01-28T17:51:55.496Z,12.02
2023-01-28T17:54:24.320Z,11.55
2023-01-28T17:56:51.326Z,12.73
2023-01-28T17:59:18.031Z,12.20
2023-01-28T18:01:45.285Z,11.90
2023-01-28T18:04:13.052Z,12.40
2023-01-28T18:06:39.773Z,12.23
2023-01-28T18:09:07.116Z,11.73
2023-01-28T18:11:33.984Z,12.65
2023-01-28T18:14:00.983Z,12.05
2023-01-28T18:16:27.832Z,11.52
2023-01-28T18:18:54.686Z,11.52
2023-01-28T18:21:51.183Z,12.48
2023-01-28T18:24:24.398Z,13.57
2023-01-28T18:26:52.573Z,13.00
2023-01-28T18:29:20.905Z,13.35
2023-01-28T18:31:48.906Z,13.02
2023-01-28T18:34:17.259Z,12.63
2023-01-28T18:36:44.316Z,12.32
2023-01-28T18:39:15.191Z,12.77
2023-01-28T18:41:42.214Z,12.38
2023-01-28T18:44:10.822Z,12.82
2023-01-28T18:46:37.654Z,12.65
2023-01-28T18:49:04.682Z,12.35
2023-01-28T18:51:31.667Z,12.15
2023-01-28T18:54:00.171Z,11.25
2023-01-28T18:56:28.343Z,12.18
2023-01-28T18:58:59.643Z,13.52
2023-01-28T19:01:26.902Z,12.23
2023-01-28T19:03:55.357Z,11.50
2023-01-28T19:06:22.225Z,13.70
2023-01-28T19:08:56.342Z,11.65
2023-01-28T19:11:24.654Z,12.23
2023-01-28T19:13:51.824Z,14.57
2023-01-28T19:16:19.192Z,22.20
2023-01-28T19:18:55.767Z,15.27
2023-01-28T19:21:24.851Z,13.82
2023-01-28T19:23:59.854Z,12.90
2023-01-28T19:26:28.301Z,12.50
2023-01-28T19:28:55.182Z,15.30
2023-01-28T19:31:23.526Z,15.18
2023-01-28T19:33:54.946Z,15.43
2023-01-28T19:36:22.007Z,29.95
2023-01-28T19:38:48.674Z,19.85
2023-01-28T19:41:17.273Z,18.35
2023-01-28T19:43:44.355Z,22.15
2023-01-28T19:46:15.806Z,25.15
2023-01-28T19:48:42.879Z,12.30
2023-01-28T19:51:10.777Z,15.07
2023-01-28T19:53:38.904Z,15.80
2023-01-28T19:56:14.952Z,13.23
2023-01-28T19:58:44.988Z,14.57
2023-01-28T20:01:16.662Z,14.80
2023-01-28T20:03:44.283Z,13.43
2023-01-28T20:06:13.380Z,16.50
2023-01-28T20:08:40.174Z,16.15
2023-01-28T20:11:09.587Z,15.32
2023-01-28T20:13:37.959Z,15.20
2023-01-28T20:16:08.596Z,13.32
2023-01-28T20:18:35.696Z,13.02
2023-01-28T20:21:05.050Z,13.85
2023-01-28T20:23:31.780Z,12.82
2023-01-28T20:25:59.268Z,15.40
2023-01-28T20:28:26.098Z,12.43
2023-01-28T20:30:53.827Z,12.43
2023-01-28T20:33:21.127Z,12.02
2023-01-28T20:35:47.906Z,12.77
2023-01-28T20:38:14.827Z,11.00
2023-01-28T20:40:44.741Z,13.88
2023-01-28T20:43:11.440Z,13.80
2023-01-28T20:45:38.251Z,12.43
2023-01-28T20:48:05.176Z,11.25
2023-01-28T20:50:31.940Z,11.85
2023-01-28T20:52:58.643Z,12.30
2023-01-28T20:55:25.287Z,12.02
2023-01-28T20:57:52.620Z,12.07
2023-01-28T21:00:20.054Z,11.27
2023-01-28T21:02:47.176Z,11.80
2023-01-28T21:05:14.056Z,11.18
2023-01-28T21:07:41.336Z,18.65
2023-01-28T21:10:08.729Z,11.55
2023-01-28T21:12:35.544Z,13.60
2023-01-28T21:15:02.355Z,13.95
2023-01-28T21:17:31.642Z,11.65
2023-01-28T21:19:58.775Z,12.93
2023-01-28T21:22:25.440Z,12.25
2023-01-28T21:24:52.110Z,34.80
2023-01-28T21:27:18.955Z,17.05
2023-01-28T21:29:45.645Z,10.57
2023-01-28T21:32:12.557Z,10.27
2023-01-28T21:34:39.426Z,9.85
2023-01-28T21:37:06.083Z,9.52
2023-01-28T21:39:32.754Z,9.32
2023-01-28T21:41:59.529Z,9.10
2023-01-28T21:44:26.209Z,9.35
2023-01-28T21:46:53.049Z,9.15
2023-01-28T21:49:19.841Z,9.73
2023-01-28T21:51:47.075Z,7.93
2023-01-28T21:54:19.181Z,8.82
2023-01-28T21:56:47.710Z,7.65
2023-01-28T21:59:30.680Z,7.72
2023-01-28T22:02:09.204Z,7.25
2023-01-28T22:04:41.227Z,8.25
2023-01-28T22:07:11.373Z,7.55
2023-01-28T22:09:39.137Z,7.45
2023-01-28T22:12:07.900Z,7.90
2023-01-28T22:14:35.732Z,6.82
2023-01-28T22:17:02.803Z,7.07
2023-01-28T22:19:29.729Z,7.22
2023-01-28T22:21:56.360Z,7.15
2023-01-28T22:24:27.217Z,6.88
2023-01-28T22:26:54.573Z,6.40
2023-01-28T22:29:22.958Z,6.95
2023-01-28T22:31:52.037Z,7.05
2023-01-28T22:34:20.451Z,7.63
2023-01-28T22:36:47.911Z,8.60
2023-01-28T22:39:16.235Z,8.00
2023-01-28T22:41:44.238Z,9.15
2023-01-28T22:44:11.236Z,9.30
2023-01-28T22:46:38.366Z,8.75
2023-01-28T22:49:05.464Z,7.97
2023-01-28T22:51:36.389Z,8.05
2023-01-28T22:54:03.594Z,7.82
2023-01-28T22:56:31.339Z,8.40
2023-01-28T22:59:03.329Z,8.75
2023-01-28T23:01:30.446Z,9.43
2023-01-28T23:03:57.572Z,9.70
2023-01-28T23:06:26.036Z,9.85
2023-01-28T23:08:54.107Z,11.02
2023-01-28T23:11:27.564Z,10.85
2023-01-28T23:14:18.716Z,10.68
2023-01-28T23:17:04.606Z,10.52
2023-01-28T23:19:50.464Z,10.60
2023-01-28T23:22:48.510Z,10.88
2023-01-28T23:25:15.691Z,11.02
2023-01-28T23:27:42.820Z,11.27
2023-01-28T23:30:11.103Z,10.10
2023-01-28T23:32:40.406Z,11.25
2023-01-28T23:35:11.162Z,10.93
2023-01-28T23:37:38.167Z,11.57
2023-01-28T23:40:06.654Z,11.65
2023-01-28T23:42:33.368Z,11.23
2023-01-28T23:45:00.162Z,10.98
2023-01-28T23:47:26.984Z,10.88
2023-01-28T23:49:53.749Z,10.88
2023-01-28T23:52:20.377Z,10.65
2023-01-28T23:54:47.058Z,11.13
2023-01-28T23:57:13.718Z,10.10
2023-01-28T23:59:40.384Z,9.63
